createdAt,value
2023-04-20T15:15:03.628Z,6.3714
2023-04-20T15:16:06.257Z,6.3769
2023-04-20T15:17:09.074Z,6.8538
2023-04-20T15:18:11.491Z,6.4154
2023-04-20T15:19:14.122Z,6.7077
2023-04-20T15:20:16.731Z,6.8846
2023-04-20T15:21:19.362Z,7.1538
2023-04-20T15:22:21.958Z,7.4846
2023-04-20T15:23:24.606Z,7.9923
2023-04-20T15:24:27.201Z,7.5000
2023-04-20T15:25:29.856Z,8.3077
2023-04-20T15:26:32.447Z,7.1615
2023-04-20T15:27:35.101Z,6.6385
2023-04-20T15:28:37.702Z,6.4385
2023-04-20T15:29:40.346Z,6.6308
2023-04-20T15:30:42.940Z,6.6615
2023-04-20T15:31:45.654Z,6.6923
2023-04-20T15:32:48.862Z,7.2538
2023-04-20T15:33:50.824Z,7.0769
2023-04-20T15:34:53.440Z,6.8077
2023-04-20T15:35:56.059Z,7.1462
2023-04-20T15:36:58.653Z,6.6538
2023-04-20T15:38:01.304Z,6.5385
2023-04-20T15:39:03.911Z,7.0000
2023-04-20T15:40:06.550Z,6.6154
2023-04-20T15:41:09.528Z,6.6462
2023-04-20T15:42:11.773Z,7.0846
2023-04-20T15:43:14.371Z,6.9923
2023-04-20T15:44:17.412Z,7.0077
2023-04-20T15:45:19.605Z,7.5692
2023-04-20T15:46:22.356Z,7.0000
2023-04-20T15:47:24.901Z,7.7462
2023-04-20T15:48:27.558Z,6.9923
2023-04-20T15:49:30.965Z,7.1538
2023-04-20T15:50:32.728Z,7.0154
2023-04-20T15:51:35.325Z,6.9231
2023-04-20T15:52:37.997Z,6.8462
2023-04-20T15:53:40.593Z,6.7846
2023-04-20T15:54:43.185Z,7.1308
2023-04-20T15:55:45.776Z,7.3615
2023-04-20T15:56:48.414Z,6.7846
2023-04-20T15:57:51.002Z,6.6846
2023-04-20T15:58:53.641Z,6.7692
2023-04-20T15:59:56.246Z,6.6077
2023-04-20T16:00:58.895Z,6.8308
2023-04-20T16:02:01.563Z,6.7846
2023-04-20T16:03:04.210Z,6.4538
2023-04-20T16:04:06.943Z,6.9000
2023-04-20T16:05:09.730Z,6.5615
2023-04-20T16:06:11.909Z,6.3154
2023-04-20T16:07:14.557Z,6.9154
2023-04-20T16:08:17.161Z,6.4615
2023-04-20T16:09:20.797Z,6.5154
2023-04-20T16:10:22.395Z,6.5692
2023-04-20T16:11:25.010Z,6.6769
2023-04-20T16:12:27.615Z,6.8000
2023-04-20T16:13:30.245Z,6.9077
2023-04-20T16:14:32.871Z,6.8462
2023-04-20T16:15:35.517Z,6.9692
2023-04-20T16:16:38.080Z,7.3692
2023-04-20T16:17:40.749Z,6.9769
2023-04-20T16:18:43.313Z,6.6231
2023-04-20T16:19:45.952Z,6.8846
2023-04-20T16:20:48.532Z,6.7615
2023-04-20T16:21:51.167Z,6.6231
2023-04-20T16:22:53.839Z,7.0462
2023-04-20T16:23:56.391Z,6.9308
2023-04-20T16:24:58.977Z,6.7462
2023-04-20T16:26:01.636Z,7.2308
2023-04-20T16:27:04.214Z,7.2462
2023-04-20T16:28:06.857Z,7.5154
2023-04-20T16:29:09.440Z,7.0615
2023-04-20T16:30:12.076Z,7.5615
2023-04-20T16:31:14.698Z,6.8385
2023-04-20T16:32:17.573Z,6.9077
2023-04-20T16:33:19.885Z,6.7462
2023-04-20T16:34:22.519Z,6.6000
2023-04-20T16:35:25.115Z,6.6385
2023-04-20T16:36:27.751Z,6.6462
2023-04-20T17:42:15.295Z,7.7071
2023-04-20T17:43:17.920Z,7.1538
2023-04-20T17:44:20.735Z,7.1615
2023-04-20T17:45:23.153Z,7.4923
2023-04-20T17:46:25.776Z,7.7769
2023-04-20T17:47:28.430Z,8.3615
2023-04-20T17:48:30.967Z,8.0538
2023-04-20T17:49:33.618Z,7.7385
2023-04-20T17:50:36.220Z,7.8923
2023-04-20T17:51:38.845Z,7.8000
2023-04-20T17:52:41.448Z,7.6000
2023-04-20T17:53:44.316Z,7.9385
2023-04-20T17:54:46.718Z,8.8154
2023-04-20T17:55:49.329Z,8.4308
2023-04-20T17:56:51.914Z,8.6462
2023-04-20T17:57:54.558Z,8.9231
2023-04-20T17:58:57.159Z,9.9692
2023-04-20T17:59:59.796Z,11.4615
2023-04-20T18:01:02.415Z,11.1385
2023-04-20T18:02:05.189Z,10.4615
2023-04-20T18:03:07.816Z,9.6692
2023-04-20T18:04:10.991Z,9.3615
2023-04-20T18:05:12.855Z,9.5077
2023-04-20T18:06:15.501Z,8.1692
2023-04-20T18:07:18.126Z,7.5077
2023-04-20T18:08:20.738Z,7.6231
2023-04-20T18:09:23.325Z,7.4923
2023-04-20T18:10:25.966Z,7.8077
